Time;durP1;ratioP1;P1;durP2;ratioP2;P2;SDS_P1;SDS_P2;PMS_P1;PMS_P2;Temp;Humidity;BMP_temperature;BMP_pressure;BME280_temperature;BME280_humidity;BME280_pressure;Samples;Min_cycle;Max_cycle;Signal;HPM_P1;HPM_P2
2021/04/08 00:01:58;;;;;;;11.57;7.07;;;52.10;2176.00;;;;;;4840835;29;20026;-69
2021/04/08 00:04:24;;;;;;;10.80;6.80;;;52.10;2176.00;;;;;;4840375;29;20088;-69
2021/04/08 00:06:50;;;;;;;12.85;7.85;;;52.00;2176.00;;;;;;4840429;29;20954;-69
2021/04/08 00:09:16;;;;;;;13.23;7.88;;;52.00;2201.60;;;;;;4840326;29;20021;-69
2021/04/08 00:11:41;;;;;;;15.35;8.02;;;52.00;2201.60;;;;;;4840567;29;20037;-69
2021/04/08 00:14:08;;;;;;;9.88;7.53;;;51.90;2201.60;;;;;;4822568;29;20033;-69
2021/04/08 00:16:33;;;;;;;15.00;7.93;;;51.90;2227.20;;;;;;4824107;29;20033;-69
2021/04/08 00:18:59;;;;;;;11.15;7.65;;;51.90;2227.20;;;;;;4819434;29;20403;-69
2021/04/08 00:21:25;;;;;;;11.10;7.25;;;51.80;2227.20;;;;;;4840076;29;20540;-69
2021/04/08 00:23:51;;;;;;;17.42;8.27;;;51.80;2227.20;;;;;;4840335;29;20030;-69
2021/04/08 00:26:16;;;;;;;12.57;8.35;;;51.80;2227.20;;;;;;4840064;29;20562;-70
2021/04/08 00:28:42;;;;;;;11.43;7.85;;;51.80;2227.20;;;;;;4845953;29;20526;-69
2021/04/08 00:31:08;;;;;;;11.63;7.28;;;51.70;2227.20;;;;;;4840089;29;20081;-69
2021/04/08 00:33:34;;;;;;;12.80;7.15;;;51.70;2227.20;;;;;;4823853;29;20163;-69
2021/04/08 00:35:59;;;;;;;11.93;7.82;;;51.70;2227.20;;;;;;4839884;29;20050;-69
2021/04/08 00:38:25;;;;;;;12.05;7.63;;;51.70;2227.20;;;;;;4840021;29;20037;-69
2021/04/08 00:40:51;;;;;;;13.25;8.68;;;51.70;2227.20;;;;;;4823131;29;20034;-70
2021/04/08 00:43:17;;;;;;;13.00;8.32;;;51.60;2227.20;;;;;;4840056;29;20038;-70
2021/04/08 00:45:43;;;;;;;12.57;8.82;;;51.60;2227.20;;;;;;4840259;29;20034;-69
2021/04/08 00:48:08;;;;;;;15.70;7.78;;;51.50;2227.20;;;;;;4839697;29;20034;-69
2021/04/08 00:50:34;;;;;;;10.32;6.78;;;51.50;2227.20;;;;;;4840467;29;20030;-69
2021/04/08 00:53:03;;;;;;;12.85;8.32;;;51.50;2227.20;;;;;;4839580;29;20041;-69
2021/04/08 00:55:33;;;;;;;12.80;8.05;;;51.50;2227.20;;;;;;4836550;29;20510;-69
2021/04/08 00:58:03;;;;;;;11.98;8.15;;;51.40;2227.20;;;;;;4837806;29;20041;-69
2021/04/08 01:00:30;;;;;;;12.90;8.20;;;51.40;2227.20;;;;;;4848937;29;20026;-69
2021/04/08 01:02:56;;;;;;;12.30;8.05;;;51.40;2227.20;;;;;;4839690;29;20041;-69
2021/04/08 01:05:22;;;;;;;13.00;9.10;;;51.40;2227.20;;;;;;4839686;29;20037;-69
2021/04/08 01:07:48;;;;;;;12.90;8.05;;;51.50;2227.20;;;;;;4839592;29;20110;-69
2021/04/08 01:10:14;;;;;;;10.30;6.88;;;51.40;2227.20;;;;;;4823189;29;20396;-69
2021/04/08 01:12:40;;;;;;;12.07;8.00;;;51.40;2227.20;;;;;;4822867;29;20076;-69
2021/04/08 01:15:07;;;;;;;15.45;8.20;;;51.40;2227.20;;;;;;4844934;29;20094;-69
2021/04/08 01:17:45;;;;;;;15.82;8.85;;;51.40;2227.20;;;;;;4839864;29;20026;-69
2021/04/08 01:20:14;;;;;;;13.45;7.95;;;51.40;2227.20;;;;;;4823139;29;20122;-69
2021/04/08 01:22:54;;;;;;;11.80;8.77;;;51.30;2227.20;;;;;;4839965;29;20034;-69
2021/04/08 01:25:48;;;;;;;14.13;8.35;;;51.30;2227.20;;;;;;4845403;29;20034;-69
2021/04/08 01:28:21;;;;;;;13.30;8.00;;;51.30;2227.20;;;;;;4838324;29;20467;-69
2021/04/08 01:30:49;;;;;;;13.73;9.15;;;51.40;2227.20;;;;;;4836407;29;20026;-69
2021/04/08 01:33:39;;;;;;;11.43;8.82;;;51.30;2227.20;;;;;;4837694;29;20037;-69
2021/04/08 01:36:08;;;;;;;13.75;8.65;;;51.30;2227.20;;;;;;4843236;29;20026;-69
2021/04/08 01:39:11;;;;;;;16.08;8.07;;;51.30;2227.20;;;;;;4842875;29;20034;-70
2021/04/08 01:41:41;;;;;;;13.05;8.18;;;51.20;2227.20;;;;;;4763737;30;20058;-69
2021/04/08 01:44:10;;;;;;;22.48;8.82;;;51.20;2227.20;;;;;;4775670;30;20089;-69
2021/04/08 01:46:38;;;;;;;14.65;8.27;;;26.50;2201.60;;;;;;4764045;30;20039;-69
2021/04/08 01:49:05;;;;;;;15.55;9.48;;;26.50;2201.60;;;;;;4775430;30;20195;-69
2021/04/08 01:51:34;;;;;;;17.38;10.13;;;26.50;2201.60;;;;;;4770219;30;20043;-69
2021/04/08 01:54:03;;;;;;;15.32;9.07;;;26.40;2201.60;;;;;;4768611;30;20036;-69
2021/04/08 01:56:34;;;;;;;14.93;8.65;;;26.30;2201.60;;;;;;4768540;30;20054;-69
2021/04/08 01:59:01;;;;;;;13.95;9.27;;;26.30;2201.60;;;;;;4778127;30;20039;-69
2021/04/08 02:01:28;;;;;;;12.00;8.07;;;26.20;2201.60;;;;;;4757006;30;20138;-69
2021/04/08 02:03:56;;;;;;;16.00;9.13;;;26.20;2201.60;;;;;;4769026;30;20550;-69
2021/04/08 02:06:24;;;;;;;16.02;8.68;;;26.20;2201.60;;;;;;4768954;30;20035;-69
2021/04/08 02:08:51;;;;;;;15.57;9.27;;;26.20;2201.60;;;;;;4775330;30;20082;-69
2021/04/08 02:11:18;;;;;;;17.77;10.15;;;26.20;2201.60;;;;;;4780245;30;20028;-69
2021/04/08 02:13:46;;;;;;;16.52;10.95;;;26.20;2201.60;;;;;;4768098;30;20538;-69
2021/04/08 02:16:14;;;;;;;17.95;10.13;;;26.20;2201.60;;;;;;4821693;29;20050;-69
2021/04/08 02:18:42;;;;;;;18.45;10.27;;;26.20;2201.60;;;;;;4842446;29;20090;-69
2021/04/08 02:21:08;;;;;;;18.83;9.85;;;26.20;2201.60;;;;;;4845058;29;20113;-69
2021/04/08 02:23:38;;;;;;;16.73;9.40;;;26.20;2201.60;;;;;;4825647;29;20045;-69
2021/04/08 02:26:07;;;;;;;15.00;8.90;;;26.20;2201.60;;;;;;4842050;29;20085;-70
2021/04/08 02:28:34;;;;;;;16.55;9.88;;;26.20;2201.60;;;;;;4842560;29;20038;-69
2021/04/08 02:31:01;;;;;;;17.23;10.15;;;26.10;2201.60;;;;;;4825852;29;20531;-69
2021/04/08 02:33:29;;;;;;;22.48;9.65;;;26.10;2201.60;;;;;;4825522;29;20034;-69
2021/04/08 02:35:56;;;;;;;21.98;11.13;;;26.10;2201.60;;;;;;4841748;29;20030;-69
2021/04/08 02:38:26;;;;;;;20.73;11.15;;;26.10;2201.60;;;;;;4841698;29;20748;-69
2021/04/08 02:40:53;;;;;;;20.55;12.35;;;26.10;2201.60;;;;;;4841500;29;20048;-70
2021/04/08 02:43:19;;;;;;;23.55;13.90;;;26.00;2201.60;;;;;;4842078;29;20038;-69
2021/04/08 02:45:45;;;;;;;25.33;13.93;;;26.00;2201.60;;;;;;4841068;29;20037;-69
2021/04/08 02:48:13;;;;;;;26.30;15.27;;;26.00;2201.60;;;;;;4841671;29;20847;-68
2021/04/08 02:50:41;;;;;;;30.08;15.00;;;26.00;2201.60;;;;;;4825213;29;20823;-69
2021/04/08 02:53:32;;;;;;;30.00;15.75;;;26.00;2201.60;;;;;;4825016;29;20109;-69
2021/04/08 02:56:21;;;;;;;28.00;14.68;;;26.00;2201.60;;;;;;4840987;29;20540;-69
2021/04/08 02:58:47;;;;;;;25.23;14.57;;;26.00;2201.60;;;;;;4763477;30;20086;-69
2021/04/08 03:01:19;;;;;;;28.88;15.95;;;26.00;2201.60;;;;;;4767312;30;20208;-68
2021/04/08 03:03:53;;;;;;;28.52;16.42;;;26.00;2201.60;;;;;;4766894;30;20044;-69
2021/04/08 03:06:20;;;;;;;22.73;14.77;;;26.00;2201.60;;;;;;4766960;30;20407;-69
2021/04/08 03:08:52;;;;;;;24.70;13.88;;;26.00;2201.60;;;;;;4767214;30;20067;-69
2021/04/08 03:11:25;;;;;;;25.67;14.60;;;25.90;2201.60;;;;;;4767331;30;20032;-69
2021/04/08 03:13:55;;;;;;;28.42;15.27;;;25.90;2201.60;;;;;;4765116;30;20164;-70
2021/04/08 03:16:25;;;;;;;29.98;15.18;;;25.90;2201.60;;;;;;4764117;29;20040;-69
2021/04/08 03:18:55;;;;;;;31.13;15.00;;;25.90;2201.60;;;;;;4766603;30;20491;-69
2021/04/08 03:21:26;;;;;;;28.77;14.88;;;25.90;2201.60;;;;;;4769437;30;20043;-69
2021/04/08 03:23:57;;;;;;;25.27;14.35;;;25.90;2201.60;;;;;;4766603;30;20905;-69
2021/04/08 03:26:25;;;;;;;28.38;13.95;;;26.00;2201.60;;;;;;4766023;30;20064;-69
2021/04/08 03:28:52;;;;;;;25.38;14.82;;;26.00;2201.60;;;;;;4761315;29;20052;-68
2021/04/08 03:31:20;;;;;;;27.15;16.33;;;26.00;2201.60;;;;;;4764335;30;20622;-69
2021/04/08 03:33:46;;;;;;;34.08;17.02;;;26.00;2201.60;;;;;;4762227;30;20040;-68
2021/04/08 03:36:15;;;;;;;28.95;16.42;;;26.10;2201.60;;;;;;4812626;29;20049;-69
2021/04/08 03:38:41;;;;;;;27.45;17.10;;;26.10;2201.60;;;;;;4821087;29;20069;-69
2021/04/08 03:41:07;;;;;;;40.05;19.05;;;26.00;2201.60;;;;;;4836810;29;20520;-68
2021/04/08 03:43:35;;;;;;;33.67;18.10;;;26.00;2201.60;;;;;;4816939;29;20130;-68
2021/04/08 03:46:03;;;;;;;41.63;21.13;;;26.00;2201.60;;;;;;4840173;29;20034;-68
2021/04/08 03:48:30;;;;;;;39.25;23.05;;;26.00;2201.60;;;;;;4839712;29;20397;-69
2021/04/08 03:50:57;;;;;;;48.45;23.27;;;26.00;2201.60;;;;;;4820463;29;20055;-69
2021/04/08 03:53:23;;;;;;;32.80;19.35;;;26.00;2201.60;;;;;;4839709;29;20508;-68
2021/04/08 03:55:49;;;;;;;34.25;19.38;;;26.00;2201.60;;;;;;4836851;29;20101;-69
2021/04/08 03:58:16;;;;;;;48.22;23.30;;;26.00;2201.60;;;;;;4840297;29;20045;-69
2021/04/08 04:00:43;;;;;;;47.63;22.08;;;26.00;2201.60;;;;;;4840358;29;20084;-68
2021/04/08 04:03:14;;;;;;;32.75;20.08;;;26.10;2201.60;;;;;;4837678;29;20136;-68
2021/04/08 04:05:43;;;;;;;38.15;19.42;;;26.10;2201.60;;;;;;4819440;29;20038;-68
2021/04/08 04:08:11;;;;;;;30.45;17.13;;;26.10;2201.60;;;;;;4833646;29;20100;-68
2021/04/08 04:10:41;;;;;;;30.67;17.48;;;26.10;2201.60;;;;;;4838319;29;20476;-68
2021/04/08 04:13:10;;;;;;;29.15;16.30;;;26.00;2201.60;;;;;;4833274;29;20524;-68
2021/04/08 04:15:38;;;;;;;29.20;16.52;;;26.20;2201.60;;;;;;4834227;29;20095;-68
2021/04/08 04:18:05;;;;;;;36.67;20.67;;;26.00;2201.60;;;;;;4820949;29;20030;-69
2021/04/08 04:20:31;;;;;;;33.13;19.23;;;26.00;2201.60;;;;;;4833925;29;20030;-69
2021/04/08 04:22:57;;;;;;;30.85;16.30;;;26.00;2201.60;;;;;;4835188;29;20034;-69
2021/04/08 04:25:23;;;;;;;33.20;17.73;;;26.00;2201.60;;;;;;4838759;29;20046;-69
2021/04/08 04:27:49;;;;;;;43.72;24.48;;;26.00;2201.60;;;;;;4820496;29;20058;-69
2021/04/08 04:30:16;;;;;;;38.05;23.13;;;25.90;2201.60;;;;;;4839519;29;20026;-69
2021/04/08 04:32:41;;;;;;;50.05;27.98;;;26.00;2201.60;;;;;;4838736;29;20026;-69
2021/04/08 04:35:07;;;;;;;46.97;25.58;;;26.00;2201.60;;;;;;4836740;29;20477;-69
2021/04/08 04:37:33;;;;;;;55.67;25.58;;;26.00;2201.60;;;;;;4823580;29;20560;-69
2021/04/08 04:39:59;;;;;;;49.58;27.88;;;26.10;2201.60;;;;;;4822184;29;20037;-69
2021/04/08 04:42:25;;;;;;;44.00;22.92;;;26.10;2201.60;;;;;;4821563;29;20125;-68
2021/04/08 04:44:51;;;;;;;49.22;23.40;;;26.10;2201.60;;;;;;4839529;29;20064;-68
2021/04/08 04:47:17;;;;;;;49.92;23.60;;;26.10;2201.60;;;;;;4835892;29;20125;-68
2021/04/08 04:49:42;;;;;;;47.78;22.85;;;26.20;2201.60;;;;;;4839690;29;20120;-69
2021/04/08 04:52:08;;;;;;;36.92;20.90;;;26.20;2201.60;;;;;;4839689;29;20030;-69
2021/04/08 04:54:34;;;;;;;34.83;18.55;;;26.20;2201.60;;;;;;4839435;29;20044;-68
2021/04/08 04:56:59;;;;;;;35.67;20.23;;;26.30;2201.60;;;;;;4823450;29;20515;-69
2021/04/08 04:59:25;;;;;;;35.60;20.58;;;26.30;2201.60;;;;;;4839813;29;20057;-69
2021/04/08 05:01:51;;;;;;;43.50;22.20;;;26.30;2201.60;;;;;;4836017;29;20023;-69
2021/04/08 05:04:17;;;;;;;55.25;26.40;;;26.40;2201.60;;;;;;4839595;29;20105;-69
2021/04/08 05:06:42;;;;;;;35.40;22.05;;;26.40;2201.60;;;;;;4839543;29;20030;-68
2021/04/08 05:09:08;;;;;;;39.38;23.83;;;26.40;2201.60;;;;;;4841337;29;20076;-69
2021/04/08 05:11:34;;;;;;;40.17;23.00;;;26.50;2201.60;;;;;;4842253;29;20085;-68
2021/04/08 05:14:00;;;;;;;52.90;24.35;;;26.50;2201.60;;;;;;4843246;29;20025;-69
2021/04/08 05:16:26;;;;;;;40.88;23.63;;;26.50;2201.60;;;;;;4842689;29;20073;-69
2021/04/08 05:18:51;;;;;;;48.10;24.77;;;51.20;2227.20;;;;;;4843267;29;20069;-69
2021/04/08 05:21:17;;;;;;;35.33;22.15;;;51.30;2227.20;;;;;;4842485;29;20116;-69
2021/04/08 05:23:43;;;;;;;51.38;24.73;;;51.30;2227.20;;;;;;4827307;29;20045;-69
2021/04/08 05:26:09;;;;;;;33.28;20.27;;;51.40;2227.20;;;;;;4836907;29;20038;-69
2021/04/08 05:28:34;;;;;;;46.97;22.83;;;51.40;2227.20;;;;;;4840857;29;20033;-69
2021/04/08 05:31:00;;;;;;;44.28;23.17;;;51.50;2227.20;;;;;;4826544;29;20030;-68
2021/04/08 05:33:26;;;;;;;38.90;21.38;;;51.60;2227.20;;;;;;4842294;29;20484;-69
2021/04/08 05:35:51;;;;;;;42.22;21.65;;;51.70;2227.20;;;;;;4842414;29;20392;-68
2021/04/08 05:38:17;;;;;;;33.30;17.33;;;51.70;2227.20;;;;;;4841311;29;20034;-68
2021/04/08 05:40:43;;;;;;;35.38;17.48;;;51.90;2227.20;;;;;;4840980;29;20033;-68
2021/04/08 05:43:09;;;;;;;27.83;17.25;;;52.00;2227.20;;;;;;4838627;29;20034;-68
2021/04/08 05:45:34;;;;;;;25.98;16.58;;;52.10;2227.20;;;;;;4839426;29;20519;-68
2021/04/08 05:48:00;;;;;;;30.42;16.77;;;76.80;2227.20;;;;;;4842070;29;20034;-68
2021/04/08 05:50:26;;;;;;;26.65;16.25;;;76.90;2227.20;;;;;;4840289;29;20034;-68
2021/04/08 05:52:52;;;;;;;26.80;16.38;;;77.00;2227.20;;;;;;4841942;29;20057;-68
2021/04/08 05:55:18;;;;;;;26.27;15.68;;;77.00;2201.60;;;;;;4825005;29;20030;-69
2021/04/08 05:57:44;;;;;;;28.77;16.02;;;77.10;2201.60;;;;;;4842023;29;20090;-68
2021/04/08 06:00:11;;;;;;;28.42;18.10;;;77.30;2201.60;;;;;;4836700;29;20026;-69
2021/04/08 06:02:37;;;;;;;32.35;17.23;;;77.40;2176.00;;;;;;4837920;29;20062;-68
2021/04/08 06:05:07;;;;;;;33.28;19.05;;;77.40;2176.00;;;;;;4825241;29;20062;-68
2021/04/08 06:07:33;;;;;;;33.95;20.17;;;77.50;2150.40;;;;;;4841606;29;20060;-69
2021/04/08 06:09:59;;;;;;;33.80;20.42;;;77.60;2150.40;;;;;;4841846;29;20058;-69
2021/04/08 06:12:25;;;;;;;37.40;20.17;;;102.40;2124.80;;;;;;4842113;29;20424;-69
2021/04/08 06:14:51;;;;;;;34.58;20.92;;;102.60;2099.20;;;;;;4825806;29;20102;-69
2021/04/08 06:17:17;;;;;;;35.97;19.70;;;102.70;2099.20;;;;;;4842623;29;20030;-70
2021/04/08 06:19:44;;;;;;;39.63;21.95;;;102.80;2073.60;;;;;;4826067;29;20065;-70
2021/04/08 06:22:11;;;;;;;41.08;18.80;;;103.00;2073.60;;;;;;4842599;29;20033;-70
2021/04/08 06:24:37;;;;;;;30.60;18.65;;;103.30;2048.00;;;;;;4840106;29;20134;-70
2021/04/08 06:27:03;;;;;;;30.63;18.63;;;128.00;2022.40;;;;;;4825380;29;20124;-70
2021/04/08 06:29:28;;;;;;;31.52;18.00;;;128.00;1996.80;;;;;;4840482;29;20030;-70
2021/04/08 06:31:54;;;;;;;32.85;18.63;;;128.10;1996.80;;;;;;4832951;29;20018;-70
2021/04/08 06:34:20;;;;;;;25.65;15.30;;;128.40;1996.80;;;;;;4837100;29;20038;-70
2021/04/08 06:36:46;;;;;;;23.88;16.13;;;128.70;1945.60;;;;;;4842028;29;20026;-70
2021/04/08 06:39:12;;;;;;;27.00;15.80;;;128.70;1945.60;;;;;;4842666;29;20034;-71
2021/04/08 06:41:39;;;;;;;23.73;14.30;;;128.80;1920.00;;;;;;4841863;29;20041;-70
2021/04/08 06:44:09;;;;;;;18.67;11.77;;;128.90;1920.00;;;;;;4842140;29;20066;-70
2021/04/08 06:46:40;;;;;;;19.77;13.07;;;153.70;1894.40;;;;;;4842354;29;20050;-70
2021/04/08 06:49:18;;;;;;;22.55;13.40;;;153.90;1894.40;;;;;;4837749;29;20065;-70
2021/04/08 06:51:48;;;;;;;22.52;11.68;;;154.30;1817.60;;;;;;4839888;29;20507;-70
2021/04/08 06:54:15;;;;;;;23.80;12.38;;;179.20;1817.60;;;;;;4841682;29;20830;-70
2021/04/08 06:56:42;;;;;;;18.92;12.57;;;179.20;1766.40;;;;;;4841997;29;20034;-70
2021/04/08 06:59:09;;;;;;;17.50;10.73;;;179.30;1740.80;;;;;;4827012;29;20094;-70
2021/04/08 07:01:36;;;;;;;20.83;12.05;;;179.50;1715.20;;;;;;4819503;29;20047;-69
2021/04/08 07:04:03;;;;;;;18.83;11.68;;;179.70;1689.60;;;;;;4841600;29;20760;-70
2021/04/08 07:06:29;;;;;;;19.00;10.68;;;179.80;1664.00;;;;;;4841517;29;20034;-70
2021/04/08 07:08:57;;;;;;;16.83;9.88;;;204.80;1638.40;;;;;;4840163;29;20038;-70
2021/04/08 07:11:23;;;;;;;24.00;12.65;;;204.90;1612.80;;;;;;4837726;29;20812;-70
2021/04/08 07:13:49;;;;;;;22.90;13.32;;;205.00;1587.20;;;;;;4839402;29;20061;-70
2021/04/08 07:16:15;;;;;;;22.67;12.23;;;205.10;1587.20;;;;;;4838509;29;20065;-70
2021/04/08 07:18:41;;;;;;;25.17;14.68;;;205.00;1536.00;;;;;;4839206;29;20033;-70
2021/04/08 07:21:07;;;;;;;24.33;14.75;;;205.20;1510.40;;;;;;4824539;29;20090;-70
2021/04/08 07:23:32;;;;;;;30.80;14.52;;;205.40;1536.00;;;;;;4824157;29;20034;-70
2021/04/08 07:26:10;;;;;;;32.30;17.55;;;205.50;1484.80;;;;;;4824213;29;20117;-70
2021/04/08 07:28:37;;;;;;;32.60;19.27;;;230.40;1459.20;;;;;;4823788;29;20042;-70
2021/04/08 07:31:28;;;;;;;32.63;19.20;;;230.50;1459.20;;;;;;4835502;29;20022;-70
2021/04/08 07:33:58;;;;;;;34.88;18.55;;;230.80;1382.40;;;;;;4836120;29;20022;-70
2021/04/08 07:36:32;;;;;;;29.80;17.92;;;230.90;1356.80;;;;;;4833422;29;20084;-70
2021/04/08 07:39:00;;;;;;;30.92;18.10;;;230.90;1331.20;;;;;;4820864;29;20034;-70
2021/04/08 07:41:31;;;;;;;22.77;14.40;;;231.20;1331.20;;;;;;4839632;29;20041;-70
2021/04/08 07:44:02;;;;;;;28.20;16.30;;;231.30;1305.60;;;;;;4821547;29;20036;-70
2021/04/08 07:46:46;;;;;;;25.25;13.07;;;256.10;1305.60;;;;;;4840276;29;20021;-70
2021/04/08 07:49:32;;;;;;;24.05;13.25;;;256.00;1305.60;;;;;;4837482;29;20034;-70
2021/04/08 07:52:24;;;;;;;25.63;13.45;;;256.20;1254.40;;;;;;4823741;29;20753;-70
2021/04/08 07:54:56;;;;;;;17.60;10.63;;;256.30;1228.80;;;;;;4834981;29;20476;-70
2021/04/08 07:57:22;;;;;;;25.88;14.68;;;256.30;1177.60;;;;;;4808022;29;20079;-69
2021/04/08 07:59:48;;;;;;;25.88;14.07;;;256.80;1203.20;;;;;;4835929;29;20061;-70
2021/04/08 08:02:14;;;;;;;17.40;7.15;;;281.60;1203.20;;;;;;4835293;29;20475;-70
2021/04/08 08:04:39;;;;;;;14.85;8.93;;;281.70;1075.20;;;;;;4840913;29;20030;-70
2021/04/08 08:07:05;;;;;;;17.85;10.60;;;281.90;1075.20;;;;;;4844678;29;20034;-70
2021/04/08 08:09:32;;;;;;;18.50;11.05;;;282.20;1075.20;;;;;;4822593;29;20090;-70
2021/04/08 08:12:09;;;;;;;20.55;10.88;;;282.20;1075.20;;;;;;4822866;29;20086;-70
2021/04/08 08:14:40;;;;;;;12.30;7.15;;;282.30;1049.60;;;;;;4839970;29;20360;-70
2021/04/08 08:17:14;;;;;;;16.08;8.13;;;282.50;998.40;;;;;;4837330;29;20148;-70
2021/04/08 08:19:43;;;;;;;11.80;7.88;;;307.70;998.40;;;;;;4836805;29;20062;-70
2021/04/08 08:22:33;;;;;;;40.92;18.67;;;307.90;947.20;;;;;;4838325;29;20484;-71
2021/04/08 08:25:00;;;;;;;16.80;7.30;;;308.10;972.80;;;;;;4820740;29;20396;-71
2021/04/08 08:27:46;;;;;;;41.38;20.40;;;332.80;947.20;;;;;;4837394;29;20052;-71
2021/04/08 08:30:18;;;;;;;10.02;5.93;;;332.80;921.60;;;;;;4838764;29;20045;-72
2021/04/08 08:33:08;;;;;;;13.13;5.57;;;333.30;896.00;;;;;;4839136;29;20033;-71
2021/04/08 08:35:34;;;;;;;11.00;6.40;;;333.40;870.40;;;;;;4818683;29;20050;-71
2021/04/08 08:38:14;;;;;;;16.33;7.72;;;333.40;870.40;;;;;;4821563;29;20041;-71
2021/04/08 08:40:40;;;;;;;10.48;5.63;;;333.50;870.40;;;;;;4840221;29;20578;-71
2021/04/08 08:43:07;;;;;;;7.85;4.78;;;333.20;844.80;;;;;;4821205;29;20022;-71
2021/04/08 08:45:34;;;;;;;10.63;6.47;;;307.70;870.40;;;;;;4843588;29;20049;-71
2021/04/08 08:48:09;;;;;;;33.50;10.45;;;307.50;896.00;;;;;;4825829;29;20548;-71
2021/04/08 08:50:37;;;;;;;9.93;7.10;;;307.30;921.60;;;;;;4823723;29;20034;-71
2021/04/08 08:53:04;;;;;;;13.30;7.93;;;307.60;921.60;;;;;;4824562;29;20555;-71
2021/04/08 08:55:30;;;;;;;16.35;7.70;;;307.50;947.20;;;;;;4840736;29;20045;-70
2021/04/08 08:57:58;;;;;;;11.02;7.03;;;307.50;947.20;;;;;;4837931;29;20042;-70
2021/04/08 09:00:26;;;;;;;10.07;5.82;;;307.20;972.80;;;;;;4835043;29;20030;-69
2021/04/08 09:02:55;;;;;;;11.13;5.25;;;307.20;947.20;;;;;;4840443;29;20038;-69
2021/04/08 09:05:23;;;;;;;14.23;6.15;;;307.60;947.20;;;;;;4836345;29;20442;-69
2021/04/08 09:07:50;;;;;;;6.20;4.13;;;307.50;947.20;;;;;;4819370;29;20469;-69
2021/04/08 09:10:31;;;;;;;7.43;3.70;;;307.70;844.80;;;;;;4835666;29;20061;-70
2021/04/08 09:12:57;;;;;;;5.72;2.83;;;307.90;793.60;;;;;;4839539;29;20029;-69
2021/04/08 09:15:23;;;;;;;5.85;3.05;;;308.10;768.00;;;;;;4840995;29;20062;-69
2021/04/08 09:17:59;;;;;;;12.10;4.88;;;307.80;768.00;;;;;;4835903;29;20068;-69
2021/04/08 09:20:26;;;;;;;8.88;4.60;;;307.50;819.20;;;;;;4837627;29;20101;-69
2021/04/08 09:23:07;;;;;;;12.48;5.88;;;307.70;844.80;;;;;;4837568;29;20117;-69
2021/04/08 09:25:38;;;;;;;8.75;5.18;;;307.90;870.40;;;;;;4841261;29;20045;-69
2021/04/08 09:28:14;;;;;;;6.40;3.95;;;332.80;896.00;;;;;;4840774;29;20194;-69
2021/04/08 09:33:42;;;;;;;7.85;5.15;;;333.30;742.40;;;;;;4840777;29;20037;-69
2021/04/08 09:36:28;;;;;;;5.00;3.65;;;333.00;768.00;;;;;;4838782;29;20025;-69
2021/04/08 09:38:54;;;;;;;8.07;5.20;;;332.80;819.20;;;;;;4840850;29;20030;-69
2021/04/08 09:41:39;;;;;;;9.02;5.60;;;333.00;819.20;;;;;;4840231;29;20094;-69
2021/04/08 09:44:06;;;;;;;10.15;4.85;;;333.00;819.20;;;;;;4840619;29;20120;-69
2021/04/08 09:46:41;;;;;;;8.68;4.57;;;333.20;819.20;;;;;;4840775;29;20030;-69
2021/04/08 09:49:07;;;;;;;6.30;3.80;;;333.40;768.00;;;;;;4825635;29;20034;-69
2021/04/08 09:51:40;;;;;;;7.93;5.32;;;333.30;793.60;;;;;;4840646;29;20502;-69
2021/04/08 09:54:08;;;;;;;16.08;6.28;;;358.50;793.60;;;;;;4821492;29;20136;-69
2021/04/08 09:56:56;;;;;;;9.82;5.00;;;384.10;742.40;;;;;;4840476;29;20752;-69
2021/04/08 09:59:23;;;;;;;8.10;4.10;;;359.00;742.40;;;;;;4823909;29;20060;-69
2021/04/08 10:01:51;;;;;;;7.25;4.25;;;358.40;768.00;;;;;;4841036;29;20033;-70
2021/04/08 10:04:20;;;;;;;12.10;3.63;;;358.90;691.20;;;;;;4822716;29;20038;-68
2021/04/08 10:06:47;;;;;;;6.05;2.85;;;333.50;716.80;;;;;;4822319;29;20038;-69
2021/04/08 10:09:15;;;;;;;5.95;3.67;;;333.60;716.80;;;;;;4838839;29;20041;-70
2021/04/08 10:11:42;;;;;;;6.60;4.47;;;333.30;768.00;;;;;;4839902;29;20082;-72
2021/04/08 10:14:25;;;;;;;5.95;3.65;;;333.00;819.20;;;;;;4842294;29;20034;-71
2021/04/08 10:17:03;;;;;;;7.55;4.47;;;333.20;793.60;;;;;;4841352;29;20029;-72
2021/04/08 10:19:31;;;;;;;7.68;4.97;;;359.10;742.40;;;;;;4825955;29;20046;-71
2021/04/08 10:21:57;;;;;;;12.65;5.47;;;384.30;716.80;;;;;;4842109;29;20053;-71
2021/04/08 10:24:23;;;;;;;7.32;4.60;;;384.80;691.20;;;;;;4824644;29;20061;-71
2021/04/08 10:26:49;;;;;;;6.25;4.60;;;384.10;691.20;;;;;;4840803;29;20046;-71
2021/04/08 10:29:29;;;;;;;7.30;4.97;;;409.70;691.20;;;;;;4824494;29;20053;-71
2021/04/08 10:31:55;;;;;;;8.50;4.88;;;410.10;665.60;;;;;;4839733;29;20022;-71
2021/04/08 10:34:21;;;;;;;8.38;3.92;;;409.90;665.60;;;;;;4840795;29;20099;-71
2021/04/08 10:36:55;;;;;;;7.20;4.20;;;384.70;614.40;;;;;;4840809;29;20034;-71
2021/04/08 10:39:27;;;;;;;8.70;5.18;;;384.10;665.60;;;;;;4841037;29;20520;-72
2021/04/08 10:42:00;;;;;;;12.82;5.75;;;358.60;716.80;;;;;;4843041;29;20037;-71
2021/04/08 10:44:28;;;;;;;7.55;4.25;;;359.00;691.20;;;;;;4824691;29;20133;-71
2021/04/08 10:47:00;;;;;;;6.50;4.07;;;384.40;665.60;;;;;;4840124;29;20030;-72
2021/04/08 10:49:31;;;;;;;7.47;3.95;;;384.50;665.60;;;;;;4840559;29;20036;-71
2021/04/08 10:52:02;;;;;;;6.85;4.68;;;409.80;640.00;;;;;;4840349;29;20049;-71
2021/04/08 10:54:31;;;;;;;7.93;4.13;;;384.80;640.00;;;;;;4840265;29;20030;-71
2021/04/08 10:56:57;;;;;;;6.70;4.47;;;409.70;665.60;;;;;;4823656;29;20038;-71
2021/04/08 10:59:25;;;;;;;7.10;3.50;;;410.10;691.20;;;;;;4823329;29;20042;-70
2021/04/08 11:01:52;;;;;;;6.55;3.42;;;410.50;665.60;;;;;;4838322;29;20069;-70
2021/04/08 11:04:19;;;;;;;8.27;2.95;;;384.60;665.60;;;;;;4837795;29;20038;-70
2021/04/08 11:06:45;;;;;;;4.00;3.20;;;409.90;640.00;;;;;;4821759;29;20057;-70
2021/04/08 11:09:11;;;;;;;5.63;3.30;;;410.30;665.60;;;;;;4823516;29;20033;-71
2021/04/08 11:11:37;;;;;;;8.32;3.75;;;435.40;665.60;;;;;;4840642;29;20036;-72
2021/04/08 11:14:03;;;;;;;6.95;3.70;;;384.70;665.60;;;;;;4822644;29;20034;-71
2021/04/08 11:16:31;;;;;;;3.97;3.00;;;435.20;665.60;;;;;;4823591;29;20038;-71
2021/04/08 11:19:01;;;;;;;5.20;2.85;;;410.20;665.60;;;;;;4839490;29;20038;-71
2021/04/08 11:21:28;;;;;;;6.65;3.10;;;436.10;640.00;;;;;;4822421;29;20404;-71
2021/04/08 11:23:58;;;;;;;5.38;3.92;;;435.50;665.60;;;;;;4839958;29;20082;-72
2021/04/08 11:26:23;;;;;;;4.32;2.83;;;435.20;691.20;;;;;;4837683;29;20046;-72
2021/04/08 11:28:53;;;;;;;4.32;2.83;;;435.50;665.60;;;;;;4839463;29;20037;-72
2021/04/08 11:31:21;;;;;;;7.50;3.50;;;409.80;716.80;;;;;;4823720;29;20034;-71
2021/04/08 11:33:57;;;;;;;4.50;3.47;;;410.50;716.80;;;;;;4823258;29;20472;-72
2021/04/08 11:36:23;;;;;;;;;;;435.70;716.80;;;;;;4841347;29;20038;-71
2021/04/08 11:38:50;;;;;;;10.13;4.28;;;435.70;691.20;;;;;;4832267;29;20573;-72
2021/04/08 11:41:16;;;;;;;6.90;4.13;;;410.40;716.80;;;;;;4838824;29;20034;-71
2021/04/08 11:43:52;;;;;;;6.97;3.30;;;435.90;691.20;;;;;;4839306;29;20199;-71
2021/04/08 11:46:32;;;;;;;5.35;2.83;;;435.20;716.80;;;;;;4838375;29;20030;-71
2021/04/08 11:48:59;;;;;;;6.93;3.35;;;435.90;665.60;;;;;;4820563;29;20071;-71
2021/04/08 11:51:28;;;;;;;12.15;6.50;;;435.90;691.20;;;;;;4820688;29;20033;-70
2021/04/08 11:53:54;;;;;;;6.25;4.03;;;436.00;691.20;;;;;;4836407;29;20033;-70
2021/04/08 11:56:36;;;;;;;8.60;3.85;;;461.30;665.60;;;;;;4819166;29;20408;-70
2021/04/08 11:59:06;;;;;;;4.68;2.90;;;486.40;691.20;;;;;;4837252;29;20435;-71
2021/04/08 12:01:34;;;;;;;8.55;3.75;;;435.90;691.20;;;;;;4838303;29;20052;-70
2021/04/08 12:04:12;;;;;;;6.78;4.47;;;409.90;742.40;;;;;;4839444;29;20029;-71
2021/04/08 12:06:49;;;;;;;7.63;5.38;;;384.00;768.00;;;;;;4821384;29;20415;-70
2021/04/08 12:09:15;;;;;;;7.65;4.57;;;359.00;793.60;;;;;;4822370;29;20459;-71
2021/04/08 12:11:56;;;;;;;6.88;3.75;;;359.10;793.60;;;;;;4838676;29;20026;-70
2021/04/08 12:14:22;;;;;;;6.65;4.68;;;359.00;819.20;;;;;;4823937;29;20037;-71
2021/04/08 12:17:03;;;;;;;9.02;4.32;;;358.50;844.80;;;;;;4823091;29;20038;-72
2021/04/08 12:19:29;;;;;;;5.22;3.78;;;333.50;870.40;;;;;;4839838;29;20032;-72
2021/04/08 12:22:05;;;;;;;5.60;4.07;;;333.10;896.00;;;;;;4840315;29;20058;-72
2021/04/08 12:24:31;;;;;;;6.70;4.15;;;332.80;921.60;;;;;;4838643;29;20034;-72
2021/04/08 12:26:58;;;;;;;9.02;4.97;;;332.80;921.60;;;;;;4839505;29;20081;-71